createdAt,value
2018-11-22T12:17:30.903Z,50.97
2018-11-22T12:20:05.398Z,51.00
2018-11-22T12:22:40.500Z,49.93
2018-11-22T12:25:15.883Z,50.33
2018-11-22T12:27:52.493Z,49.40
2018-11-22T12:30:30.830Z,49.23
2018-11-22T12:33:09.287Z,49.67
2018-11-22T12:35:48.739Z,51.23
2018-11-22T12:38:28.095Z,52.47
2018-11-22T12:41:02.190Z,51.43
2018-11-22T12:43:36.156Z,51.57
2018-11-22T12:46:10.264Z,55.53
2018-11-22T12:48:44.292Z,52.23
2018-11-22T12:51:18.268Z,55.20
2018-11-22T12:53:52.349Z,52.23
2018-11-22T12:56:26.339Z,53.33
2018-11-22T12:59:00.350Z,55.27
2018-11-22T13:01:34.517Z,55.47
2018-11-22T13:04:08.559Z,54.03
2018-11-22T13:06:42.725Z,53.30
2018-11-22T13:09:16.736Z,56.23
2018-11-22T13:11:50.741Z,54.00
2018-11-22T13:14:24.743Z,54.23
2018-11-22T13:16:58.740Z,52.37
2018-11-22T13:19:32.804Z,51.70
2018-11-22T13:22:09.229Z,51.83
2018-11-22T13:24:43.233Z,52.13
2018-11-22T13:27:17.289Z,56.87
2018-11-22T13:29:51.758Z,52.57
2018-11-22T13:32:25.793Z,55.10
2018-11-22T13:34:59.814Z,52.23
2018-11-22T13:37:33.797Z,54.37
2018-11-22T13:40:09.711Z,52.53
2018-11-22T13:42:44.495Z,50.80
2018-11-22T13:45:20.978Z,49.60
2018-11-22T13:47:55.696Z,48.70
2018-11-22T13:50:31.057Z,50.40
2018-11-22T13:53:06.575Z,47.80
2018-11-22T13:55:40.833Z,47.70
2018-11-22T13:58:14.831Z,49.30
2018-11-22T14:00:48.974Z,49.20
2018-11-22T14:03:22.976Z,49.73
2018-11-22T14:05:57.100Z,49.23
2018-11-22T14:08:31.256Z,48.17
2018-11-22T14:11:13.393Z,48.63
2018-11-22T14:13:39.879Z,48.70
2018-11-22T14:16:13.884Z,48.80
2018-11-22T14:18:47.968Z,47.57
2018-11-22T14:21:22.049Z,48.70
2018-11-22T14:23:56.044Z,51.27
2018-11-22T14:26:30.072Z,49.00
2018-11-22T14:29:04.090Z,47.17
2018-11-22T14:31:38.093Z,49.57
2018-11-22T14:34:12.614Z,49.63
2018-11-22T14:36:46.697Z,49.67
2018-11-22T14:39:20.726Z,47.30
2018-11-22T14:41:54.765Z,47.90
2018-11-22T14:44:28.783Z,46.83
2018-11-22T14:47:02.888Z,47.17
2018-11-22T14:49:36.916Z,49.40
2018-11-22T14:52:11.128Z,50.17
2018-11-22T14:54:45.199Z,47.33
2018-11-22T14:57:19.267Z,46.97
2018-11-22T14:59:53.436Z,48.80
2018-11-22T15:02:27.460Z,46.70
2018-11-22T15:05:01.558Z,47.77
2018-11-22T15:07:35.616Z,52.37
2018-11-22T15:10:11.536Z,48.27
2018-11-22T15:12:46.698Z,47.87
2018-11-22T15:15:22.367Z,48.37
2018-11-22T15:17:56.496Z,47.60
2018-11-22T15:20:30.720Z,48.37
2018-11-22T15:23:04.847Z,53.10
2018-11-22T15:25:38.919Z,50.00
2018-11-22T15:28:13.132Z,54.13
2018-11-22T15:30:47.156Z,57.37
2018-11-22T15:33:21.476Z,55.47
2018-11-22T15:35:55.528Z,51.20
2018-11-22T15:38:29.527Z,51.00
2018-11-22T15:41:03.560Z,48.80
2018-11-22T15:43:37.553Z,54.37
2018-11-22T15:46:11.813Z,59.77
2018-11-22T15:48:45.846Z,59.13
2018-11-22T15:51:20.794Z,52.30
2018-11-22T15:53:54.873Z,50.23
2018-11-22T15:56:28.967Z,55.63
2018-11-22T15:59:03.072Z,53.33
2018-11-22T16:01:37.125Z,51.57
2018-11-22T16:04:11.213Z,50.67
2018-11-22T16:06:45.255Z,49.13
2018-11-22T16:09:19.256Z,49.70
2018-11-22T16:11:53.380Z,48.67
2018-11-22T16:14:27.428Z,47.00
2018-11-22T16:17:01.592Z,45.90
2018-11-22T16:19:35.605Z,46.50
2018-11-22T16:22:09.641Z,48.83
2018-11-22T16:24:43.756Z,72.07
2018-11-22T16:27:17.791Z,59.40
2018-11-22T16:29:51.891Z,52.23
2018-11-22T16:32:25.928Z,51.57
2018-11-22T16:35:00.132Z,48.37
2018-11-22T16:37:34.164Z,47.40
2018-11-22T16:40:10.511Z,47.83
2018-11-22T16:42:45.733Z,48.33
2018-11-22T16:45:19.980Z,46.63
2018-11-22T16:47:54.168Z,46.37
2018-11-22T16:50:29.358Z,47.60
2018-11-22T16:53:03.370Z,46.27
2018-11-22T16:55:38.539Z,45.80
2018-11-22T16:58:12.692Z,52.85
2018-11-22T17:00:46.824Z,50.17
2018-11-22T17:03:20.750Z,50.87
2018-11-22T17:05:54.792Z,51.40
2018-11-22T17:08:29.077Z,50.13
2018-11-22T17:11:03.211Z,53.30
2018-11-22T17:13:37.191Z,49.47
2018-11-22T17:16:11.368Z,47.70
2018-11-22T17:18:45.380Z,47.33
2018-11-22T17:21:19.435Z,49.03
2018-11-22T17:23:53.580Z,58.73
2018-11-22T17:26:27.668Z,59.20
2018-11-22T17:29:01.693Z,73.50
2018-11-22T17:31:35.839Z,74.40
2018-11-22T17:34:09.884Z,78.20
2018-11-22T17:36:44.464Z,72.83
2018-11-22T17:39:31.487Z,69.07
2018-11-22T17:42:33.612Z,71.40
2018-11-22T17:45:10.233Z,60.40
2018-11-22T17:47:44.408Z,58.23
2018-11-22T17:50:18.488Z,52.00
2018-11-22T17:52:52.608Z,63.60
2018-11-22T17:55:34.475Z,67.67
2018-11-22T17:58:08.624Z,65.83
2018-11-22T18:00:49.005Z,62.60
2018-11-22T18:03:23.483Z,53.37
2018-11-22T18:05:57.546Z,52.57
2018-11-22T18:08:31.748Z,51.90
2018-11-22T18:11:06.159Z,52.93
2018-11-22T18:13:40.215Z,56.60
2018-11-22T18:16:14.271Z,52.70
2018-11-22T18:18:49.355Z,49.40
2018-11-22T18:21:23.476Z,52.43
2018-11-22T18:23:57.578Z,64.77
2018-11-22T18:26:31.687Z,60.03
2018-11-22T18:29:05.767Z,93.87
2018-11-22T18:31:39.801Z,112.40
2018-11-22T18:34:14.024Z,68.37
2018-11-22T18:36:48.112Z,56.37
2018-11-22T18:39:22.264Z,51.67
2018-11-22T18:41:56.333Z,49.03
2018-11-22T18:44:30.351Z,49.00
2018-11-22T18:47:04.545Z,50.27
2018-11-22T18:49:38.684Z,49.43
2018-11-22T18:52:12.813Z,49.13
2018-11-22T18:54:46.872Z,47.43
2018-11-22T18:57:21.291Z,46.63
2018-11-22T18:59:55.299Z,47.80
2018-11-22T19:02:29.357Z,46.60
2018-11-22T19:05:03.481Z,44.20
2018-11-22T19:07:37.501Z,47.93
2018-11-22T19:10:14.825Z,47.70
2018-11-22T19:12:53.314Z,48.87
2018-11-22T19:15:28.689Z,45.90
2018-11-22T19:18:02.848Z,46.53
2018-11-22T19:20:38.328Z,45.97
2018-11-22T19:23:12.856Z,45.23
2018-11-22T19:25:47.997Z,48.10
2018-11-22T19:28:22.020Z,49.63
2018-11-22T19:30:56.113Z,50.87
2018-11-22T19:33:30.145Z,48.03
2018-11-22T19:36:04.267Z,51.00
2018-11-22T19:38:38.281Z,51.97
2018-11-22T19:41:13.364Z,50.50
2018-11-22T19:43:47.492Z,48.90
2018-11-22T19:46:21.481Z,48.93
2018-11-22T19:48:55.507Z,46.20
2018-11-22T19:51:29.548Z,47.33
2018-11-22T19:54:03.617Z,47.47
2018-11-22T19:56:37.777Z,46.50
2018-11-22T19:59:11.833Z,46.93
2018-11-22T20:01:46.101Z,47.70
2018-11-22T20:04:20.097Z,46.73
2018-11-22T20:06:54.180Z,47.50
2018-11-22T20:09:28.234Z,47.67
2018-11-22T20:12:02.238Z,47.27
2018-11-22T20:14:36.375Z,48.20
2018-11-22T20:17:10.392Z,47.03
2018-11-22T20:19:44.373Z,47.30
2018-11-22T20:22:18.565Z,47.53
2018-11-22T20:24:52.796Z,46.57
2018-11-22T20:27:27.044Z,47.57
2018-11-22T20:30:01.040Z,46.50
2018-11-22T20:32:38.799Z,47.60
2018-11-22T20:35:11.329Z,45.20
2018-11-22T20:37:46.056Z,49.03
2018-11-22T20:40:21.374Z,44.97
2018-11-22T20:42:55.500Z,44.33
2018-11-22T20:45:30.101Z,47.20
2018-11-22T20:48:05.477Z,48.73
2018-11-22T20:50:39.521Z,46.57
2018-11-22T20:53:13.704Z,47.00
2018-11-22T20:55:47.765Z,47.30
2018-11-22T20:58:21.773Z,47.43
2018-11-22T21:00:55.782Z,45.33
2018-11-22T21:03:29.790Z,46.13
2018-11-22T21:06:03.771Z,44.80
2018-11-22T21:08:48.574Z,45.60
2018-11-22T21:11:18.908Z,45.73
2018-11-22T21:13:53.555Z,48.23
2018-11-22T21:16:27.529Z,45.90
2018-11-22T21:19:01.618Z,46.93
2018-11-22T21:21:35.622Z,47.37
2018-11-22T21:24:09.748Z,46.37
2018-11-22T21:26:43.745Z,45.53
2018-11-22T21:29:17.764Z,45.70
2018-11-22T21:31:51.741Z,45.77
2018-11-22T21:34:25.817Z,45.80
2018-11-22T21:37:00.256Z,45.13
2018-11-22T21:39:34.272Z,44.67
2018-11-22T21:42:08.312Z,45.83
2018-11-22T21:44:42.345Z,45.70
2018-11-22T21:47:16.380Z,44.47
2018-11-22T21:49:50.560Z,45.57
2018-11-22T21:52:24.597Z,48.73
2018-11-22T21:54:58.609Z,44.03
2018-11-22T21:57:32.657Z,44.97
2018-11-22T22:00:10.908Z,45.27
2018-11-22T22:02:45.957Z,44.60
2018-11-22T22:05:19.594Z,46.63
2018-11-22T22:07:53.629Z,48.43
2018-11-22T22:10:27.741Z,46.80
2018-11-22T22:13:01.795Z,49.00
2018-11-22T22:15:36.562Z,54.77
2018-11-22T22:18:10.690Z,52.70
2018-11-22T22:20:44.695Z,53.83
2018-11-22T22:23:18.751Z,55.00
2018-11-22T22:25:52.773Z,51.90
2018-11-22T22:28:26.803Z,49.13
2018-11-22T22:31:00.873Z,47.57
2018-11-22T22:33:34.902Z,47.40
2018-11-22T22:36:08.980Z,45.53
2018-11-22T22:38:43.036Z,46.83
2018-11-22T22:41:17.073Z,46.97
2018-11-22T22:43:51.122Z,45.80
2018-11-22T22:46:25.125Z,45.93
2018-11-22T22:48:59.305Z,45.93
2018-11-22T22:51:33.983Z,44.20
2018-11-22T22:54:08.008Z,45.30
2018-11-22T22:56:42.047Z,46.00
2018-11-22T22:59:16.107Z,44.67
2018-11-22T23:01:50.172Z,44.97
2018-11-22T23:04:24.536Z,43.77
2018-11-22T23:06:58.542Z,44.83
2018-11-22T23:09:32.606Z,46.03
2018-11-22T23:12:06.844Z,44.57
2018-11-22T23:14:40.985Z,45.20
2018-11-22T23:17:14.997Z,44.73
2018-11-22T23:19:50.112Z,45.07
2018-11-22T23:22:24.158Z,44.77
2018-11-22T23:24:58.200Z,45.70
2018-11-22T23:27:32.269Z,47.00
2018-11-22T23:30:18.697Z,45.78
2018-11-22T23:32:53.908Z,46.07
2018-11-22T23:35:27.995Z,52.17
2018-11-22T23:38:01.993Z,45.97
2018-11-22T23:40:37.113Z,45.13
2018-11-22T23:43:11.109Z,49.90
2018-11-22T23:45:45.121Z,44.97
2018-11-22T23:48:19.145Z,43.50
2018-11-22T23:50:53.189Z,44.80
2018-11-22T23:53:27.291Z,42.40
2018-11-22T23:56:01.287Z,46.90
2018-11-22T23:58:35.285Z,44.47
